sensor_id;sensor_type;location;lat;lon;timestamp;P1;durP1;ratioP1;P2;durP2;ratioP2
66425;SDS011;53237;46.158;14.604;2022-07-29T00:00:57;4.35;;;3.95;;
66425;SDS011;53237;46.158;14.604;2022-07-29T00:03:23;4.78;;;4.30;;
66425;SDS011;53237;46.158;14.604;2022-07-29T00:05:49;6.32;;;5.75;;
66425;SDS011;53237;46.158;14.604;2022-07-29T00:08:16;4.70;;;4.30;;
66425;SDS011;53237;46.158;14.604;2022-07-29T00:10:42;4.63;;;4.20;;
66425;SDS011;53237;46.158;14.604;2022-07-29T00:13:08;5.40;;;4.30;;
66425;SDS011;53237;46.158;14.604;2022-07-29T00:15:35;4.50;;;4.10;;
66425;SDS011;53237;46.158;14.604;2022-07-29T00:18:01;4.78;;;4.38;;
66425;SDS011;53237;46.158;14.604;2022-07-29T00:20:27;4.25;;;3.95;;
66425;SDS011;53237;46.158;14.604;2022-07-29T00:22:53;4.70;;;4.25;;
66425;SDS011;53237;46.158;14.604;2022-07-29T00:25:19;4.72;;;4.32;;
66425;SDS011;53237;46.158;14.604;2022-07-29T00:27:45;4.97;;;4.40;;
66425;SDS011;53237;46.158;14.604;2022-07-29T00:30:11;4.70;;;4.20;;
66425;SDS011;53237;46.158;14.604;2022-07-29T00:32:37;5.00;;;4.60;;
66425;SDS011;53237;46.158;14.604;2022-07-29T00:35:04;4.95;;;4.50;;
66425;SDS011;53237;46.158;14.604;2022-07-29T00:37:48;5.47;;;4.80;;
66425;SDS011;53237;46.158;14.604;2022-07-29T00:40:14;5.05;;;4.65;;
66425;SDS011;53237;46.158;14.604;2022-07-29T00:42:44;5.13;;;4.65;;
66425;SDS011;53237;46.158;14.604;2022-07-29T00:45:10;5.40;;;4.75;;
66425;SDS011;53237;46.158;14.604;2022-07-29T00:47:36;4.88;;;4.38;;
66425;SDS011;53237;46.158;14.604;2022-07-29T00:50:03;4.97;;;4.57;;
66425;SDS011;53237;46.158;14.604;2022-07-29T00:52:29;5.10;;;4.22;;
66425;SDS011;53237;46.158;14.604;2022-07-29T00:54:55;4.20;;;3.90;;
66425;SDS011;53237;46.158;14.604;2022-07-29T00:57:21;4.72;;;4.30;;
66425;SDS011;53237;46.158;14.604;2022-07-29T00:59:47;4.13;;;3.83;;
66425;SDS011;53237;46.158;14.604;2022-07-29T01:02:13;4.60;;;4.20;;
66425;SDS011;53237;46.158;14.604;2022-07-29T01:04:39;4.60;;;4.20;;
66425;SDS011;53237;46.158;14.604;2022-07-29T01:07:06;4.70;;;4.25;;
66425;SDS011;53237;46.158;14.604;2022-07-29T01:09:32;4.35;;;3.97;;
66425;SDS011;53237;46.158;14.604;2022-07-29T01:11:59;4.47;;;4.07;;
66425;SDS011;53237;46.158;14.604;2022-07-29T01:14:25;5.15;;;4.65;;
66425;SDS011;53237;46.158;14.604;2022-07-29T01:16:54;4.50;;;4.15;;
66425;SDS011;53237;46.158;14.604;2022-07-29T01:19:47;4.00;;;3.70;;
66425;SDS011;53237;46.158;14.604;2022-07-29T01:27:22;4.13;;;3.83;;
66425;SDS011;53237;46.158;14.604;2022-07-29T01:29:55;4.40;;;4.10;;
66425;SDS011;53237;46.158;14.604;2022-07-29T01:32:24;4.85;;;4.30;;
66425;SDS011;53237;46.158;14.604;2022-07-29T01:39:54;4.93;;;4.53;;
66425;SDS011;53237;46.158;14.604;2022-07-29T01:42:42;4.40;;;4.10;;
66425;SDS011;53237;46.158;14.604;2022-07-29T01:45:10;4.53;;;4.13;;
66425;SDS011;53237;46.158;14.604;2022-07-29T01:48:00;4.82;;;4.43;;
66425;SDS011;53237;46.158;14.604;2022-07-29T01:50:27;4.57;;;4.00;;
66425;SDS011;53237;46.158;14.604;2022-07-29T01:52:55;4.88;;;4.38;;
66425;SDS011;53237;46.158;14.604;2022-07-29T01:55:22;5.00;;;4.60;;
66425;SDS011;53237;46.158;14.604;2022-07-29T01:57:51;4.60;;;4.22;;
66425;SDS011;53237;46.158;14.604;2022-07-29T02:00:17;4.05;;;3.75;;
66425;SDS011;53237;46.158;14.604;2022-07-29T02:02:44;4.60;;;4.20;;
66425;SDS011;53237;46.158;14.604;2022-07-29T02:05:12;4.45;;;4.05;;
66425;SDS011;53237;46.158;14.604;2022-07-29T02:07:40;4.40;;;4.10;;
66425;SDS011;53237;46.158;14.604;2022-07-29T02:10:06;5.00;;;4.13;;
66425;SDS011;53237;46.158;14.604;2022-07-29T02:12:32;4.78;;;4.38;;
66425;SDS011;53237;46.158;14.604;2022-07-29T02:15:01;4.40;;;4.00;;
66425;SDS011;53237;46.158;14.604;2022-07-29T02:17:29;4.40;;;4.10;;
66425;SDS011;53237;46.158;14.604;2022-07-29T02:19:57;4.13;;;3.72;;
66425;SDS011;53237;46.158;14.604;2022-07-29T02:22:25;4.57;;;4.20;;
66425;SDS011;53237;46.158;14.604;2022-07-29T02:24:52;4.55;;;4.15;;
66425;SDS011;53237;46.158;14.604;2022-07-29T02:27:19;4.20;;;3.90;;
66425;SDS011;53237;46.158;14.604;2022-07-29T02:29:46;4.28;;;3.88;;
66425;SDS011;53237;46.158;14.604;2022-07-29T02:32:13;4.80;;;4.40;;
66425;SDS011;53237;46.158;14.604;2022-07-29T02:34:39;4.22;;;3.92;;
66425;SDS011;53237;46.158;14.604;2022-07-29T02:37:05;4.07;;;3.78;;
66425;SDS011;53237;46.158;14.604;2022-07-29T02:39:34;4.53;;;4.05;;
66425;SDS011;53237;46.158;14.604;2022-07-29T02:42:04;3.97;;;3.67;;
66425;SDS011;53237;46.158;14.604;2022-07-29T02:44:31;5.18;;;3.90;;
66425;SDS011;53237;46.158;14.604;2022-07-29T02:47:04;4.60;;;4.03;;
66425;SDS011;53237;46.158;14.604;2022-07-29T02:49:36;5.18;;;4.05;;
66425;SDS011;53237;46.158;14.604;2022-07-29T02:52:03;4.30;;;4.00;;
66425;SDS011;53237;46.158;14.604;2022-07-29T02:54:39;3.95;;;3.65;;
66425;SDS011;53237;46.158;14.604;2022-07-29T02:57:14;4.10;;;3.80;;
66425;SDS011;53237;46.158;14.604;2022-07-29T02:59:44;4.28;;;3.97;;
66425;SDS011;53237;46.158;14.604;2022-07-29T03:02:11;4.30;;;3.90;;
66425;SDS011;53237;46.158;14.604;2022-07-29T03:04:39;5.57;;;4.50;;
66425;SDS011;53237;46.158;14.604;2022-07-29T03:07:05;4.95;;;3.70;;
66425;SDS011;53237;46.158;14.604;2022-07-29T03:09:31;4.13;;;3.83;;
66425;SDS011;53237;46.158;14.604;2022-07-29T03:11:58;4.32;;;3.92;;
66425;SDS011;53237;46.158;14.604;2022-07-29T03:14:25;4.18;;;3.78;;
66425;SDS011;53237;46.158;14.604;2022-07-29T03:16:52;4.60;;;4.25;;
66425;SDS011;53237;46.158;14.604;2022-07-29T03:19:18;4.07;;;3.78;;
66425;SDS011;53237;46.158;14.604;2022-07-29T03:21:45;4.55;;;4.15;;
66425;SDS011;53237;46.158;14.604;2022-07-29T03:24:23;4.35;;;4.05;;
66425;SDS011;53237;46.158;14.604;2022-07-29T03:26:49;3.58;;;3.30;;
66425;SDS011;53237;46.158;14.604;2022-07-29T03:29:15;3.85;;;3.55;;
66425;SDS011;53237;46.158;14.604;2022-07-29T03:31:41;4.13;;;3.80;;
66425;SDS011;53237;46.158;14.604;2022-07-29T03:34:07;4.15;;;3.65;;
66425;SDS011;53237;46.158;14.604;2022-07-29T03:36:33;5.43;;;4.10;;
66425;SDS011;53237;46.158;14.604;2022-07-29T03:38:59;4.80;;;4.13;;
66425;SDS011;53237;46.158;14.604;2022-07-29T03:41:26;4.18;;;3.88;;
66425;SDS011;53237;46.158;14.604;2022-07-29T03:43:52;4.07;;;3.67;;
66425;SDS011;53237;46.158;14.604;2022-07-29T03:46:20;4.03;;;3.67;;
66425;SDS011;53237;46.158;14.604;2022-07-29T03:48:47;3.90;;;3.63;;
66425;SDS011;53237;46.158;14.604;2022-07-29T03:51:14;3.80;;;3.50;;
66425;SDS011;53237;46.158;14.604;2022-07-29T03:53:40;4.32;;;3.95;;
66425;SDS011;53237;46.158;14.604;2022-07-29T03:56:06;4.20;;;3.72;;
66425;SDS011;53237;46.158;14.604;2022-07-29T03:58:33;4.20;;;3.80;;
66425;SDS011;53237;46.158;14.604;2022-07-29T04:00:59;3.88;;;3.47;;
66425;SDS011;53237;46.158;14.604;2022-07-29T04:03:25;3.80;;;3.50;;
66425;SDS011;53237;46.158;14.604;2022-07-29T04:06:04;4.35;;;4.05;;
66425;SDS011;53237;46.158;14.604;2022-07-29T04:08:31;4.13;;;3.72;;
66425;SDS011;53237;46.158;14.604;2022-07-29T04:10:57;4.63;;;4.22;;
66425;SDS011;53237;46.158;14.604;2022-07-29T04:13:23;4.50;;;4.10;;
66425;SDS011;53237;46.158;14.604;2022-07-29T04:15:49;4.30;;;3.95;;
66425;SDS011;53237;46.158;14.604;2022-07-29T04:18:15;4.20;;;3.80;;
66425;SDS011;53237;46.158;14.604;2022-07-29T04:20:42;5.03;;;4.60;;
66425;SDS011;53237;46.158;14.604;2022-07-29T04:23:08;4.57;;;4.25;;
66425;SDS011;53237;46.158;14.604;2022-07-29T04:25:36;4.25;;;3.80;;
66425;SDS011;53237;46.158;14.604;2022-07-29T04:28:02;4.50;;;4.10;;
66425;SDS011;53237;46.158;14.604;2022-07-29T04:30:29;4.53;;;4.13;;
66425;SDS011;53237;46.158;14.604;2022-07-29T04:32:55;4.68;;;4.28;;
66425;SDS011;53237;46.158;14.604;2022-07-29T04:35:21;4.40;;;4.10;;
66425;SDS011;53237;46.158;14.604;2022-07-29T04:37:47;4.95;;;4.05;;
66425;SDS011;53237;46.158;14.604;2022-07-29T04:40:13;4.47;;;4.07;;
66425;SDS011;53237;46.158;14.604;2022-07-29T04:42:39;4.13;;;3.78;;
66425;SDS011;53237;46.158;14.604;2022-07-29T04:45:05;4.10;;;3.80;;
66425;SDS011;53237;46.158;14.604;2022-07-29T04:47:32;4.10;;;3.70;;
66425;SDS011;53237;46.158;14.604;2022-07-29T04:49:58;4.03;;;3.72;;
66425;SDS011;53237;46.158;14.604;2022-07-29T04:52:24;4.32;;;3.83;;
66425;SDS011;53237;46.158;14.604;2022-07-29T04:54:50;4.40;;;4.00;;
66425;SDS011;53237;46.158;14.604;2022-07-29T04:57:16;3.97;;;3.67;;
66425;SDS011;53237;46.158;14.604;2022-07-29T04:59:42;4.38;;;3.95;;
66425;SDS011;53237;46.158;14.604;2022-07-29T05:02:08;4.18;;;3.88;;
66425;SDS011;53237;46.158;14.604;2022-07-29T05:04:34;4.20;;;3.90;;
66425;SDS011;53237;46.158;14.604;2022-07-29T05:07:00;4.45;;;3.97;;
66425;SDS011;53237;46.158;14.604;2022-07-29T05:09:26;4.13;;;3.83;;
66425;SDS011;53237;46.158;14.604;2022-07-29T05:11:52;4.13;;;3.72;;
66425;SDS011;53237;46.158;14.604;2022-07-29T05:14:18;4.72;;;3.90;;
66425;SDS011;53237;46.158;14.604;2022-07-29T05:16:44;4.28;;;3.88;;
66425;SDS011;53237;46.158;14.604;2022-07-29T05:19:10;4.28;;;3.80;;
66425;SDS011;53237;46.158;14.604;2022-07-29T05:21:37;4.10;;;3.70;;
66425;SDS011;53237;46.158;14.604;2022-07-29T05:24:03;6.53;;;5.90;;
66425;SDS011;53237;46.158;14.604;2022-07-29T05:26:29;5.10;;;4.63;;
66425;SDS011;53237;46.158;14.604;2022-07-29T05:28:55;4.75;;;4.35;;
66425;SDS011;53237;46.158;14.604;2022-07-29T05:31:22;4.45;;;4.05;;
66425;SDS011;53237;46.158;14.604;2022-07-29T05:33:48;5.47;;;4.63;;
66425;SDS011;53237;46.158;14.604;2022-07-29T05:36:13;6.60;;;4.05;;
66425;SDS011;53237;46.158;14.604;2022-07-29T05:38:39;5.07;;;4.32;;
66425;SDS011;53237;46.158;14.604;2022-07-29T05:41:05;4.93;;;4.32;;
66425;SDS011;53237;46.158;14.604;2022-07-29T05:43:32;5.82;;;4.68;;
66425;SDS011;53237;46.158;14.604;2022-07-29T05:45:58;4.80;;;4.40;;
66425;SDS011;53237;46.158;14.604;2022-07-29T05:48:24;4.70;;;4.30;;
66425;SDS011;53237;46.158;14.604;2022-07-29T05:50:50;4.50;;;4.15;;
66425;SDS011;53237;46.158;14.604;2022-07-29T05:53:16;5.43;;;4.25;;
66425;SDS011;53237;46.158;14.604;2022-07-29T05:55:42;5.78;;;4.57;;
66425;SDS011;53237;46.158;14.604;2022-07-29T05:58:08;4.93;;;4.43;;
66425;SDS011;53237;46.158;14.604;2022-07-29T06:00:34;4.55;;;4.15;;
66425;SDS011;53237;46.158;14.604;2022-07-29T06:03:00;4.68;;;4.28;;
66425;SDS011;53237;46.158;14.604;2022-07-29T06:05:26;4.68;;;4.18;;
66425;SDS011;53237;46.158;14.604;2022-07-29T06:07:52;7.63;;;6.40;;
66425;SDS011;53237;46.158;14.604;2022-07-29T06:10:18;4.55;;;4.15;;
66425;SDS011;53237;46.158;14.604;2022-07-29T06:12:44;5.03;;;4.63;;
66425;SDS011;53237;46.158;14.604;2022-07-29T06:15:10;6.18;;;5.68;;
66425;SDS011;53237;46.158;14.604;2022-07-29T06:17:36;6.10;;;4.80;;
66425;SDS011;53237;46.158;14.604;2022-07-29T06:20:02;4.72;;;4.32;;
66425;SDS011;53237;46.158;14.604;2022-07-29T06:22:29;6.93;;;6.32;;
66425;SDS011;53237;46.158;14.604;2022-07-29T06:24:55;6.15;;;5.47;;
66425;SDS011;53237;46.158;14.604;2022-07-29T06:27:21;9.13;;;7.80;;
66425;SDS011;53237;46.158;14.604;2022-07-29T06:29:47;11.63;;;7.30;;
66425;SDS011;53237;46.158;14.604;2022-07-29T06:32:13;5.63;;;5.15;;
66425;SDS011;53237;46.158;14.604;2022-07-29T06:34:39;5.00;;;4.60;;
66425;SDS011;53237;46.158;14.604;2022-07-29T06:37:06;5.40;;;4.90;;
66425;SDS011;53237;46.158;14.604;2022-07-29T06:39:33;6.50;;;5.88;;
66425;SDS011;53237;46.158;14.604;2022-07-29T06:42:00;5.75;;;5.32;;
66425;SDS011;53237;46.158;14.604;2022-07-29T06:44:25;7.32;;;6.35;;
66425;SDS011;53237;46.158;14.604;2022-07-29T06:46:51;7.18;;;5.97;;
66425;SDS011;53237;46.158;14.604;2022-07-29T06:49:19;6.43;;;5.80;;
66425;SDS011;53237;46.158;14.604;2022-07-29T06:51:45;6.90;;;6.00;;
66425;SDS011;53237;46.158;14.604;2022-07-29T06:54:11;5.50;;;5.03;;
66425;SDS011;53237;46.158;14.604;2022-07-29T06:56:37;5.65;;;5.10;;
66425;SDS011;53237;46.158;14.604;2022-07-29T06:59:07;7.28;;;5.38;;
66425;SDS011;53237;46.158;14.604;2022-07-29T07:01:33;10.70;;;7.35;;
66425;SDS011;53237;46.158;14.604;2022-07-29T07:03:59;5.15;;;4.75;;
66425;SDS011;53237;46.158;14.604;2022-07-29T07:06:25;6.45;;;5.78;;
66425;SDS011;53237;46.158;14.604;2022-07-29T07:08:51;5.30;;;4.72;;
66425;SDS011;53237;46.158;14.604;2022-07-29T07:11:17;6.18;;;5.57;;
66425;SDS011;53237;46.158;14.604;2022-07-29T07:13:43;7.05;;;5.93;;
66425;SDS011;53237;46.158;14.604;2022-07-29T07:16:09;6.55;;;4.80;;
66425;SDS011;53237;46.158;14.604;2022-07-29T07:18:35;5.38;;;4.88;;
66425;SDS011;53237;46.158;14.604;2022-07-29T07:21:01;7.85;;;5.25;;
66425;SDS011;53237;46.158;14.604;2022-07-29T07:23:27;5.32;;;4.82;;
66425;SDS011;53237;46.158;14.604;2022-07-29T07:25:53;6.80;;;5.57;;
66425;SDS011;53237;46.158;14.604;2022-07-29T07:28:19;5.00;;;4.60;;
66425;SDS011;53237;46.158;14.604;2022-07-29T07:30:45;4.72;;;4.32;;
66425;SDS011;53237;46.158;14.604;2022-07-29T07:33:11;6.18;;;4.35;;
66425;SDS011;53237;46.158;14.604;2022-07-29T07:35:37;7.53;;;4.97;;
66425;SDS011;53237;46.158;14.604;2022-07-29T07:38:03;5.68;;;4.18;;
66425;SDS011;53237;46.158;14.604;2022-07-29T07:40:31;6.20;;;5.60;;
66425;SDS011;53237;46.158;14.604;2022-07-29T07:42:57;4.70;;;4.40;;
66425;SDS011;53237;46.158;14.604;2022-07-29T07:45:23;10.40;;;6.07;;
66425;SDS011;53237;46.158;14.604;2022-07-29T07:47:49;6.13;;;5.53;;
66425;SDS011;53237;46.158;14.604;2022-07-29T07:50:15;5.40;;;4.90;;
66425;SDS011;53237;46.158;14.604;2022-07-29T07:52:45;7.43;;;5.88;;
66425;SDS011;53237;46.158;14.604;2022-07-29T07:55:11;5.15;;;4.65;;
66425;SDS011;53237;46.158;14.604;2022-07-29T07:57:37;5.13;;;4.70;;
66425;SDS011;53237;46.158;14.604;2022-07-29T08:00:03;6.72;;;5.88;;
66425;SDS011;53237;46.158;14.604;2022-07-29T08:02:30;5.18;;;4.65;;
66425;SDS011;53237;46.158;14.604;2022-07-29T08:04:56;5.68;;;5.18;;
66425;SDS011;53237;46.158;14.604;2022-07-29T08:07:21;7.53;;;4.10;;
66425;SDS011;53237;46.158;14.604;2022-07-29T08:09:47;5.78;;;5.20;;
66425;SDS011;53237;46.158;14.604;2022-07-29T08:12:13;4.78;;;3.80;;
66425;SDS011;53237;46.158;14.604;2022-07-29T08:14:39;5.10;;;4.38;;
66425;SDS011;53237;46.158;14.604;2022-07-29T08:17:05;6.05;;;5.18;;
66425;SDS011;53237;46.158;14.604;2022-07-29T08:19:31;5.25;;;4.35;;
66425;SDS011;53237;46.158;14.604;2022-07-29T08:21:57;4.22;;;3.88;;
66425;SDS011;53237;46.158;14.604;2022-07-29T08:24:23;4.97;;;4.30;;
66425;SDS011;53237;46.158;14.604;2022-07-29T08:27:08;6.38;;;4.28;;
66425;SDS011;53237;46.158;14.604;2022-07-29T08:29:34;5.05;;;4.05;;
66425;SDS011;53237;46.158;14.604;2022-07-29T08:32:00;4.45;;;3.65;;
66425;SDS011;53237;46.158;14.604;2022-07-29T08:34:26;4.82;;;3.80;;
66425;SDS011;53237;46.158;14.604;2022-07-29T08:36:53;5.35;;;4.13;;
66425;SDS011;53237;46.158;14.604;2022-07-29T08:39:19;4.22;;;3.53;;
66425;SDS011;53237;46.158;14.604;2022-07-29T08:41:45;5.97;;;3.70;;
66425;SDS011;53237;46.158;14.604;2022-07-29T08:44:15;3.60;;;3.30;;
66425;SDS011;53237;46.158;14.604;2022-07-29T08:46:42;4.28;;;3.58;;
66425;SDS011;53237;46.158;14.604;2022-07-29T08:49:08;6.70;;;3.85;;
66425;SDS011;53237;46.158;14.604;2022-07-29T08:51:34;5.90;;;3.40;;
66425;SDS011;53237;46.158;14.604;2022-07-29T08:54:02;5.78;;;3.13;;
66425;SDS011;53237;46.158;14.604;2022-07-29T08:56:28;4.03;;;3.10;;
66425;SDS011;53237;46.158;14.604;2022-07-29T08:58:54;3.67;;;3.38;;
66425;SDS011;53237;46.158;14.604;2022-07-29T09:01:23;3.72;;;3.40;;
66425;SDS011;53237;46.158;14.604;2022-07-29T09:03:49;4.65;;;3.35;;
66425;SDS011;53237;46.158;14.604;2022-07-29T09:06:17;8.18;;;3.15;;
66425;SDS011;53237;46.158;14.604;2022-07-29T09:08:44;4.05;;;3.20;;
66425;SDS011;53237;46.158;14.604;2022-07-29T09:11:10;4.40;;;2.72;;
66425;SDS011;53237;46.158;14.604;2022-07-29T09:13:36;5.88;;;3.10;;
66425;SDS011;53237;46.158;14.604;2022-07-29T09:16:02;3.15;;;2.95;;
66425;SDS011;53237;46.158;14.604;2022-07-29T09:18:39;3.10;;;2.80;;
66425;SDS011;53237;46.158;14.604;2022-07-29T09:21:06;3.33;;;3.00;;
66425;SDS011;53237;46.158;14.604;2022-07-29T09:26:30;3.40;;;3.10;;
66425;SDS011;53237;46.158;14.604;2022-07-29T09:28:57;3.65;;;2.80;;
66425;SDS011;53237;46.158;14.604;2022-07-29T09:31:43;3.28;;;2.83;;
66425;SDS011;53237;46.158;14.604;2022-07-29T09:34:09;4.82;;;3.10;;
66425;SDS011;53237;46.158;14.604;2022-07-29T09:36:46;3.10;;;2.63;;
66425;SDS011;53237;46.158;14.604;2022-07-29T09:39:12;3.25;;;2.92;;
66425;SDS011;53237;46.158;14.604;2022-07-29T09:41:46;2.78;;;2.58;;
66425;SDS011;53237;46.158;14.604;2022-07-29T09:44:12;3.30;;;3.00;;
66425;SDS011;53237;46.158;14.604;2022-07-29T09:46:39;3.03;;;2.67;;
66425;SDS011;53237;46.158;14.604;2022-07-29T09:49:11;3.47;;;3.00;;
66425;SDS011;53237;46.158;14.604;2022-07-29T09:51:37;3.45;;;2.72;;
66425;SDS011;53237;46.158;14.604;2022-07-29T09:54:23;2.75;;;2.55;;
66425;SDS011;53237;46.158;14.604;2022-07-29T09:56:49;4.90;;;2.97;;
66425;SDS011;53237;46.158;14.604;2022-07-29T09:59:15;4.55;;;2.75;;
66425;SDS011;53237;46.158;14.604;2022-07-29T10:01:41;4.28;;;2.80;;
66425;SDS011;53237;46.158;14.604;2022-07-29T10:04:07;2.70;;;2.50;;
66425;SDS011;53237;46.158;14.604;2022-07-29T10:06:33;4.28;;;2.90;;
66425;SDS011;53237;46.158;14.604;2022-07-29T10:09:11;2.78;;;2.58;;
66425;SDS011;53237;46.158;14.604;2022-07-29T10:11:37;3.90;;;2.50;;
66425;SDS011;53237;46.158;14.604;2022-07-29T10:14:03;3.15;;;2.30;;
66425;SDS011;53237;46.158;14.604;2022-07-29T10:16:30;3.55;;;2.55;;
66425;SDS011;53237;46.158;14.604;2022-07-29T10:18:59;4.60;;;3.10;;
66425;SDS011;53237;46.158;14.604;2022-07-29T10:21:26;3.47;;;2.50;;
66425;SDS011;53237;46.158;14.604;2022-07-29T10:23:52;4.40;;;2.40;;
66425;SDS011;53237;46.158;14.604;2022-07-29T10:26:21;3.38;;;3.03;;
66425;SDS011;53237;46.158;14.604;2022-07-29T10:28:47;3.55;;;3.10;;
66425;SDS011;53237;46.158;14.604;2022-07-29T10:31:15;4.63;;;2.53;;
66425;SDS011;53237;46.158;14.604;2022-07-29T10:36:42;3.53;;;2.75;;
66425;SDS011;53237;46.158;14.604;2022-07-29T10:39:16;4.57;;;3.05;;
66425;SDS011;53237;46.158;14.604;2022-07-29T10:41:46;2.60;;;2.40;;
66425;SDS011;53237;46.158;14.604;2022-07-29T10:44:17;5.47;;;2.90;;
66425;SDS011;53237;46.158;14.604;2022-07-29T10:46:44;4.15;;;2.97;;
66425;SDS011;53237;46.158;14.604;2022-07-29T10:49:20;2.95;;;2.65;;
66425;SDS011;53237;46.158;14.604;2022-07-29T10:54:36;2.88;;;2.58;;
66425;SDS011;53237;46.158;14.604;2022-07-29T10:59:48;3.00;;;2.80;;
66425;SDS011;53237;46.158;14.604;2022-07-29T11:05:02;4.88;;;2.72;;
66425;SDS011;53237;46.158;14.604;2022-07-29T11:07:28;3.17;;;2.95;;
66425;SDS011;53237;46.158;14.604;2022-07-29T11:20:40;2.60;;;2.40;;
66425;SDS011;53237;46.158;14.604;2022-07-29T11:26:15;2.63;;;2.42;;
66425;SDS011;53237;46.158;14.604;2022-07-29T11:47:22;3.25;;;2.80;;
66425;SDS011;53237;46.158;14.604;2022-07-29T11:49:48;3.10;;;2.80;;
66425;SDS011;53237;46.158;14.604;2022-07-29T11:52:16;3.08;;;2.78;;
66425;SDS011;53237;46.158;14.604;2022-07-29T11:54:42;3.38;;;2.90;;
66425;SDS011;53237;46.158;14.604;2022-07-29T11:57:09;2.58;;;2.38;;
66425;SDS011;53237;46.158;14.604;2022-07-29T11:59:39;3.40;;;3.10;;
66425;SDS011;53237;46.158;14.604;2022-07-29T12:04:33;3.15;;;2.85;;
66425;SDS011;53237;46.158;14.604;2022-07-29T12:06:59;2.80;;;2.60;;
66425;SDS011;53237;46.158;14.604;2022-07-29T12:09:25;2.42;;;2.22;;
66425;SDS011;53237;46.158;14.604;2022-07-29T12:11:58;3.08;;;2.25;;
66425;SDS011;53237;46.158;14.604;2022-07-29T12:14:33;4.05;;;2.58;;
66425;SDS011;53237;46.158;14.604;2022-07-29T12:16:59;4.55;;;2.60;;
66425;SDS011;53237;46.158;14.604;2022-07-29T12:19:26;2.92;;;2.35;;
66425;SDS011;53237;46.158;14.604;2022-07-29T12:21:53;3.30;;;2.58;;
66425;SDS011;53237;46.158;14.604;2022-07-29T12:24:24;5.15;;;2.60;;
66425;SDS011;53237;46.158;14.604;2022-07-29T12:26:54;3.92;;;2.90;;
66425;SDS011;53237;46.158;14.604;2022-07-29T12:29:21;2.83;;;2.63;;
66425;SDS011;53237;46.158;14.604;2022-07-29T12:31:50;2.78;;;2.58;;
66425;SDS011;53237;46.158;14.604;2022-07-29T12:34:18;2.33;;;2.13;;
66425;SDS011;53237;46.158;14.604;2022-07-29T12:36:45;2.80;;;2.60;;
66425;SDS011;53237;46.158;14.604;2022-07-29T12:39:11;2.88;;;2.67;;
66425;SDS011;53237;46.158;14.604;2022-07-29T12:41:37;2.85;;;2.30;;
66425;SDS011;53237;46.158;14.604;2022-07-29T12:44:04;3.65;;;2.50;;
66425;SDS011;53237;46.158;14.604;2022-07-29T12:46:30;2.63;;;2.42;;
66425;SDS011;53237;46.158;14.604;2022-07-29T12:48:56;2.95;;;2.40;;
66425;SDS011;53237;46.158;14.604;2022-07-29T12:54:03;3.17;;;2.88;;
66425;SDS011;53237;46.158;14.604;2022-07-29T12:56:29;3.28;;;2.55;;
66425;SDS011;53237;46.158;14.604;2022-07-29T12:58:55;3.72;;;3.00;;
66425;SDS011;53237;46.158;14.604;2022-07-29T13:01:21;3.47;;;2.60;;
66425;SDS011;53237;46.158;14.604;2022-07-29T13:08:59;4.50;;;3.00;;
66425;SDS011;53237;46.158;14.604;2022-07-29T13:11:29;5.03;;;2.75;;
66425;SDS011;53237;46.158;14.604;2022-07-29T13:13:55;2.83;;;2.63;;
66425;SDS011;53237;46.158;14.604;2022-07-29T13:16:21;2.47;;;2.38;;
66425;SDS011;53237;46.158;14.604;2022-07-29T13:18:47;4.18;;;3.05;;
66425;SDS011;53237;46.158;14.604;2022-07-29T13:21:14;3.55;;;3.10;;
66425;SDS011;53237;46.158;14.604;2022-07-29T13:23:40;2.67;;;2.47;;
66425;SDS011;53237;46.158;14.604;2022-07-29T13:26:09;2.83;;;2.63;;
66425;SDS011;53237;46.158;14.604;2022-07-29T13:28:36;3.05;;;2.85;;
66425;SDS011;53237;46.158;14.604;2022-07-29T13:31:02;3.05;;;2.78;;
66425;SDS011;53237;46.158;14.604;2022-07-29T13:33:29;2.90;;;2.70;;
66425;SDS011;53237;46.158;14.604;2022-07-29T13:35:55;3.40;;;3.10;;
66425;SDS011;53237;46.158;14.604;2022-07-29T13:38:21;3.25;;;2.95;;
66425;SDS011;53237;46.158;14.604;2022-07-29T13:40:47;3.13;;;2.90;;
66425;SDS011;53237;46.158;14.604;2022-07-29T13:43:13;4.10;;;3.33;;
66425;SDS011;53237;46.158;14.604;2022-07-29T13:45:39;3.50;;;2.92;;
66425;SDS011;53237;46.158;14.604;2022-07-29T13:48:06;3.95;;;2.70;;
66425;SDS011;53237;46.158;14.604;2022-07-29T13:50:32;2.92;;;2.72;;
66425;SDS011;53237;46.158;14.604;2022-07-29T13:52:58;3.17;;;2.80;;
66425;SDS011;53237;46.158;14.604;2022-07-29T13:55:24;3.45;;;2.70;;
66425;SDS011;53237;46.158;14.604;2022-07-29T13:57:50;3.65;;;2.55;;
66425;SDS011;53237;46.158;14.604;2022-07-29T14:00:16;3.53;;;2.70;;
66425;SDS011;53237;46.158;14.604;2022-07-29T14:02:43;2.75;;;2.53;;
66425;SDS011;53237;46.158;14.604;2022-07-29T14:05:09;2.95;;;2.75;;
66425;SDS011;53237;46.158;14.604;2022-07-29T14:07:36;3.25;;;2.78;;
66425;SDS011;53237;46.158;14.604;2022-07-29T14:10:04;2.90;;;2.70;;
66425;SDS011;53237;46.158;14.604;2022-07-29T14:12:30;3.25;;;2.95;;
66425;SDS011;53237;46.158;14.604;2022-07-29T14:14:56;3.35;;;2.92;;
66425;SDS011;53237;46.158;14.604;2022-07-29T14:17:22;3.38;;;3.08;;
66425;SDS011;53237;46.158;14.604;2022-07-29T14:19:48;2.80;;;2.60;;
66425;SDS011;53237;46.158;14.604;2022-07-29T14:22:14;7.32;;;3.10;;
66425;SDS011;53237;46.158;14.604;2022-07-29T14:24:40;41.08;;;6.45;;
66425;SDS011;53237;46.158;14.604;2022-07-29T14:27:06;12.15;;;4.15;;
66425;SDS011;53237;46.158;14.604;2022-07-29T14:29:33;4.57;;;2.78;;
66425;SDS011;53237;46.158;14.604;2022-07-29T14:31:59;3.95;;;2.90;;
66425;SDS011;53237;46.158;14.604;2022-07-29T14:34:25;7.22;;;2.67;;
66425;SDS011;53237;46.158;14.604;2022-07-29T14:36:51;3.40;;;3.10;;
66425;SDS011;53237;46.158;14.604;2022-07-29T14:39:20;7.68;;;3.47;;
66425;SDS011;53237;46.158;14.604;2022-07-29T14:41:47;9.43;;;3.65;;
66425;SDS011;53237;46.158;14.604;2022-07-29T14:44:13;7.63;;;3.20;;
66425;SDS011;53237;46.158;14.604;2022-07-29T14:46:39;5.40;;;3.00;;
66425;SDS011;53237;46.158;14.604;2022-07-29T14:49:05;4.43;;;2.90;;
66425;SDS011;53237;46.158;14.604;2022-07-29T14:51:31;4.88;;;3.15;;
66425;SDS011;53237;46.158;14.604;2022-07-29T14:53:57;3.78;;;2.75;;
66425;SDS011;53237;46.158;14.604;2022-07-29T14:56:23;4.13;;;2.75;;
66425;SDS011;53237;46.158;14.604;2022-07-29T14:58:49;3.45;;;2.78;;
66425;SDS011;53237;46.158;14.604;2022-07-29T15:01:15;3.92;;;3.03;;
66425;SDS011;53237;46.158;14.604;2022-07-29T15:03:41;4.15;;;3.40;;
66425;SDS011;53237;46.158;14.604;2022-07-29T15:06:07;6.05;;;3.08;;
66425;SDS011;53237;46.158;14.604;2022-07-29T15:08:33;3.00;;;2.80;;
66425;SDS011;53237;46.158;14.604;2022-07-29T15:10:59;3.33;;;3.03;;
66425;SDS011;53237;46.158;14.604;2022-07-29T15:13:26;3.42;;;3.13;;
66425;SDS011;53237;46.158;14.604;2022-07-29T15:15:52;3.85;;;3.45;;
66425;SDS011;53237;46.158;14.604;2022-07-29T15:18:18;3.25;;;2.95;;
66425;SDS011;53237;46.158;14.604;2022-07-29T15:20:44;3.60;;;3.30;;
66425;SDS011;53237;46.158;14.604;2022-07-29T15:23:11;3.55;;;3.25;;
66425;SDS011;53237;46.158;14.604;2022-07-29T15:25:38;4.85;;;3.55;;
66425;SDS011;53237;46.158;14.604;2022-07-29T15:28:04;3.78;;;3.38;;
66425;SDS011;53237;46.158;14.604;2022-07-29T15:30:33;3.95;;;3.08;;
66425;SDS011;53237;46.158;14.604;2022-07-29T15:33:04;3.03;;;2.83;;
66425;SDS011;53237;46.158;14.604;2022-07-29T15:35:31;4.47;;;3.30;;
66425;SDS011;53237;46.158;14.604;2022-07-29T15:37:57;3.80;;;3.45;;
66425;SDS011;53237;46.158;14.604;2022-07-29T15:40:23;4.25;;;3.83;;